Data for 06/26/2015

Time Sea-Level Adjusted Pressure Absolute Pressure Temperature Relative Humidity Dew Point   
(mb) (inHg) (mb) (inHg) (C) (F) (%) (C) (F)
00:05 1024 30.24 854 25.22 18.4 65.1 52 8.5 47.2
00:10 1024 30.24 854 25.22 18.3 65 53 8.7 47.6
00:15 1024 30.24 854 25.22 18.2 64.7 53 8.7 47.6
00:20 1024 30.24 854 25.22 18 64.5 54 8.6 47.4
00:25 1024 30.24 854 25.22 18 64.4 54 8.7 47.7
00:30 1024 30.24 854 25.22 17.8 64.1 56 8.9 48
00:35 1024 30.24 854 25.22 17.2 63 59 9.2 48.6
00:40 1024 30.24 854 25.22 16.3 61.4 60 8.7 47.7
00:45 1024 30.24 854 25.22 16.2 61.1 60 8.5 47.2
00:50 1024 30.24 854 25.22 16 60.9 60 8.4 47.1
00:55 1024 30.24 854 25.22 16 60.8 63 9 48.3
01:00 1024 30.24 854 25.22 16.2 61.1 59 8.3 46.9
01:05 1024 30.24 854 25.22 16.2 61.1 59 8.1 46.6
01:10 1025 30.27 854 25.22 16.2 61.2 58 8.1 46.7
01:15 1025 30.27 854 25.22 16.2 61.2 59 8.2 46.8
01:20 1025 30.27 854 25.22 16.3 61.3 59 8.2 46.8
01:25 1025 30.27 854 25.22 16.2 61.2 59 8.3 47
01:30 1025 30.27 854 25.22 16.3 61.3 59 8.4 47.1
01:35 1025 30.27 854 25.22 16.2 61.2 58 7.9 46.2
01:40 1025 30.27 854 25.22 15.9 60.7 58 7.8 46.1
01:45 1025 30.27 854 25.22 15.7 60.3 59 7.7 45.8
01:50 1025 30.27 854 25.22 15.7 60.2 57 7.3 45.2
01:55 1025 30.27 854 25.22 15.8 60.5 57 7.3 45.2
02:00 1025 30.27 854 25.22 16 60.9 56 7.4 45.3
02:05 1025 30.27 854 25.22 16.1 60.9 57 7.7 45.8
02:10 1025 30.27 854 25.22 16.1 61 57 7.8 46
02:15 1025 30.27 854 25.22 16 60.8 58 7.8 46.1
02:20 1025 30.27 854 25.22 15.9 60.6 58 7.6 45.7
02:25 1025 30.27 854 25.22 15.7 60.3 59 7.7 45.9
02:30 1025 30.27 854 25.22 15.5 59.9 59 7.6 45.7
02:35 1025 30.27 854 25.22 15.5 59.9 58 7.3 45.2
02:40 1025 30.27 854 25.22 15.5 60 56 6.9 44.5
02:45 1025 30.27 854 25.22 15.4 59.8 54 6.3 43.3
02:50 1025 30.27 854 25.22 15.1 59.2 53 5.7 42.2
02:55 1025 30.27 854 25.22 15 59.1 53 5.5 41.9
03:00 1025 30.27 854 25.22 15.6 60 55 6.7 44
03:05 1025 30.27 854 25.22 15.3 59.6 55 6.5 43.8
03:10 1025 30.27 854 25.22 15 59 54 5.9 42.7
03:15 1025 30.27 854 25.22 15 59.1 53 5.5 42
03:20 1025 30.27 854 25.22 15.1 59.2 54 5.9 42.6
03:25 1025 30.27 854 25.22 15.9 60.7 57 7.4 45.4
03:30 1025 30.27 854 25.22 16.2 61.2 53 6.8 44.3
03:35 1025 30.27 854 25.22 15.6 60 57 7.2 45
03:40 1025 30.27 854 25.22 15.4 59.6 58 7.3 45.1
03:45 1025 30.27 854 25.22 15 59.1 58 6.9 44.4
03:50 1025 30.27 854 25.22 14.8 58.7 57 6.5 43.7
03:55 1025 30.27 854 25.22 14.7 58.5 59 6.8 44.3
04:00 1025 30.27 854 25.22 14.2 57.5 60 6.6 43.8
04:05 1025 30.27 854 25.22 14.3 57.8 58 6.2 43.2
04:10 1025 30.27 854 25.22 14.7 58.4 57 6.3 43.4
04:15 1025 30.27 854 25.22 14.8 58.6 57 6.3 43.4
04:20 1025 30.27 854 25.22 14.6 58.2 57 6.1 43
04:25 1025 30.27 854 25.22 14.7 58.5 55 5.9 42.6
04:30 1025 30.27 854 25.22 15 59 55 6.2 43.1
04:35 1025 30.27 854 25.22 15 59 55 6.2 43.1
04:40 1025 30.27 854 25.22 14.9 58.9 56 6.2 43.2
04:45 1025 30.27 855 25.25 14.7 58.4 57 6.3 43.3
04:50 1025 30.27 855 25.25 14.5 58 57 6.1 43
04:55 1025 30.27 855 25.25 14.4 57.8 56 5.7 42.3
05:00 1025 30.27 855 25.25 14.7 58.4 54 5.5 42
05:05 1025 30.27 855 25.25 15.1 59.1 53 5.7 42.2
05:10 1025 30.27 855 25.25 14.8 58.7 55 6 42.8
05:15 1025 30.27 855 25.25 14.5 58.1 56 5.8 42.5
05:20 1025 30.27 855 25.25 14.6 58.3 56 5.9 42.7
05:25 1025 30.27 855 25.25 14.7 58.5 55 6 42.8
05:30 1026 30.3 855 25.25 15 58.9 55 6.1 43
05:35 1026 30.3 855 25.25 15 59.1 55 6.2 43.2
05:40 1026 30.3 855 25.25 15.2 59.3 55 6.4 43.4
05:45 1026 30.3 855 25.25 15.2 59.3 55 6.4 43.5
05:50 1026 30.3 855 25.25 15.1 59.2 54 5.9 42.6
05:55 1026 30.3 855 25.25 15.4 59.6 53 6 42.8
06:00 1026 30.3 855 25.25 15.6 60.1 54 6.4 43.5
06:05 1026 30.3 855 25.25 15.7 60.3 54 6.4 43.6
06:10 1026 30.3 855 25.25 15.9 60.5 59 8 46.4
06:15 1026 30.3 855 25.25 16.1 61 54 7 44.5
06:20 1026 30.3 855 25.25 16.2 61.2 54 7.1 44.8
06:25 1026 30.3 855 25.25 16.3 61.4 54 7.1 44.8
06:30 1026 30.3 855 25.25 16.5 61.8 53 7 44.7
06:35 1026 30.3 855 25.25 16.9 62.3 52 7.1 44.7
06:40 1026 30.3 855 25.25 17.3 63.1 51 7.3 45.1
06:45 1026 30.3 855 25.25 17.5 63.5 53 7.8 46.1
06:50 1026 30.3 855 25.25 18.1 64.5 49 7.2 45
06:55 1026 30.3 855 25.25 18.5 65.3 47 7.2 44.9
07:00 1026 30.3 855 25.25 18.8 65.9 46 7 44.6
07:05 1026 30.3 855 25.25 19 66.2 46 7.2 45
07:10 1026 30.3 855 25.25 19.4 66.9 47 8 46.3
07:15 1026 30.3 855 25.25 19.8 67.7 43 7.1 44.8
07:20 1026 30.3 855 25.25 20.2 68.3 44 7.7 45.8
07:25 1026 30.3 855 25.25 20.2 68.4 43 7.4 45.4
07:30 1026 30.3 855 25.25 21 69.8 41 7.3 45.2
07:35 1026 30.3 855 25.25 21.1 70 41 7.6 45.8
07:40 1026 30.3 855 25.25 21.3 70.4 39 7.1 44.8
07:45 1026 30.3 855 25.25 21.6 70.8 33 5 40.9
07:50 1026 30.3 855 25.25 21.2 70.2 34 4.8 40.7
07:55 1026 30.3 855 25.25 21.2 70.1 37 5.9 42.7
08:00 1026 30.3 856 25.28 21.4 70.5 36 6 42.9
08:05 1026 30.3 856 25.28 22.5 72.4 33 5.6 42
08:10 1026 30.3 855 25.25 23.2 73.7 32 5.8 42.4
08:15 1026 30.3 855 25.25 23.5 74.3 31 5.5 41.9
08:20 1026 30.3 855 25.25 23 73.5 32 5.8 42.5
08:25 1026 30.3 855 25.25 22.4 72.3 33 5.4 41.8
08:30 1026 30.3 855 25.25 22.4 72.2 34 5.8 42.5
08:35 1026 30.3 856 25.28 22.9 73.2 32 5.7 42.2
08:40 1026 30.3 856 25.28 23.4 74.1 33 6.4 43.5
08:45 1026 30.3 856 25.28 23.1 73.5 34 6.5 43.7
08:50 1026 30.3 856 25.28 23.8 74.8 33 6.7 44.1
08:55 1026 30.3 855 25.25 23.1 73.6 34 6.8 44.2
09:00 1026 30.3 855 25.25 22.8 73.1 34 6.2 43.1
09:05 1026 30.3 855 25.25 23.4 74.2 33 6.5 43.6
09:10 1026 30.3 855 25.25 23.2 73.8 33 6.5 43.7
09:15 1026 30.3 855 25.25 23.6 74.4 31 5.7 42.2
09:20 1026 30.3 855 25.25 24.4 75.9 31 6.3 43.4
09:25 1026 30.3 855 25.25 24.3 75.7 31 6.2 43.2
09:30 1026 30.3 855 25.25 25.1 77.3 28 5.4 41.7
09:35 1026 30.3 855 25.25 25.5 77.8 28 5.8 42.5
09:40 1026 30.3 855 25.25 25.5 77.9 27 5.6 42
09:45 1026 30.3 855 25.25 25.8 78.4 27 5.5 41.8
09:50 1026 30.3 855 25.25 25.7 78.3 28 6.2 43.2
09:55 1026 30.3 855 25.25 25.9 78.6 27 5.8 42.4
10:00 1026 30.3 855 25.25 26.1 78.9 26 5.3 41.6
10:05 1026 30.3 855 25.25 25.6 78 27 5.4 41.6
10:10 1026 30.3 855 25.25 25.8 78.4 27 5.5 41.9
10:15 1026 30.3 855 25.25 26.4 79.6 27 6 42.7
10:20 1026 30.3 855 25.25 26.6 79.8 26 6 42.8
10:25 1026 30.3 855 25.25 25.9 78.6 27 5.7 42.2
10:30 1026 30.3 855 25.25 26.3 79.3 27 6.1 43
10:35 1026 30.3 855 25.25 26.8 80.2 25 5.7 42.2
10:40 1026 30.3 855 25.25 27.2 81 24 5 41.1
10:45 1026 30.3 855 25.25 27.8 82 24 5.8 42.5
10:50 1026 30.3 855 25.25 28.4 83 23 5.6 42
10:55 1026 30.3 855 25.25 28.4 83.1 21 4.5 40.1
11:00 1026 30.3 855 25.25 27.6 81.6 22 4.4 39.9
11:05 1026 30.3 855 25.25 26.8 80.3 23 4.5 40.2
11:10 1026 30.3 855 25.25 26.9 80.5 24 4.8 40.6
11:15 1026 30.3 855 25.25 27.9 82.3 22 4.3 39.8
11:20 1025 30.27 855 25.25 28.1 82.6 22 4.9 40.9
11:25 1025 30.27 855 25.25 28.5 83.4 21 4.2 39.6
11:30 1025 30.27 855 25.25 28.3 82.9 21 4.2 39.5
11:35 1025 30.27 855 25.25 28.5 83.4 21 4.5 40.1
11:40 1025 30.27 854 25.22 28.3 83 22 4.9 40.9
11:45 1025 30.27 854 25.22 28.5 83.2 21 4.2 39.5
11:50 1025 30.27 854 25.22 28.7 83.6 21 4.4 39.8
11:55 1025 30.27 854 25.22 27.9 82.2 21 4 39.2
12:00 1025 30.27 854 25.22 27.8 82 20 3 37.5
12:05 1025 30.27 854 25.22 28.7 83.6 20 4.1 39.4
12:10 1025 30.27 854 25.22 29 84.2 17 2.1 35.7
12:15 1025 30.27 854 25.22 29.7 85.4 17 2.6 36.6
12:20 1025 30.27 854 25.22 29.9 85.8 15 1.2 34.2
12:25 1025 30.27 854 25.22 30.3 86.6 15 1 33.8
12:30 1025 30.27 854 25.22 29.9 85.7 14 -0.2 31.6
12:35 1025 30.27 854 25.22 30.1 86.2 16 2 35.7
12:40 1025 30.27 854 25.22 29.7 85.5 16 1.6 34.9
12:45 1025 30.27 854 25.22 30.1 86.1 17 2.6 36.7
12:50 1025 30.27 854 25.22 30.2 86.3 14 0.3 32.6
12:55 1025 30.27 854 25.22 30.3 86.5 15 1.3 34.4
13:00 1025 30.27 854 25.22 29.9 85.8 16 1.8 35.3
13:05 1025 30.27 854 25.22 30 86 15 0.7 33.3
13:10 1025 30.27 854 25.22 29.2 84.6 16 0.9 33.7
13:15 1025 30.27 854 25.22 30 85.9 15 0.7 33.2
13:20 1025 30.27 854 25.22 29.5 85.1 14 -0.1 31.7
13:25 1025 30.27 854 25.22 29.3 84.7 16 0.8 33.4
13:30 1024 30.24 854 25.22 30.8 87.4 14 0.5 32.8
13:35 1024 30.24 854 25.22 31.2 88.1 13 0.3 32.6
13:40 1024 30.24 854 25.22 30.2 86.4 12 -1.9 28.6
13:45 1024 30.24 854 25.22 30.5 87 11 -2.8 26.9
13:50 1024 30.24 854 25.22 30.2 86.4 11 -3.4 25.8
13:55 1024 30.24 854 25.22 30.9 87.6 11 -3 26.6
14:00 1024 30.24 854 25.22 31.2 88.1 11 -2.2 28
14:05 1024 30.24 853 25.19 31.5 88.6 12 -0.9 30.4
14:10 1024 30.24 853 25.19 31.8 89.2 11 -1.4 29.4
14:15 1024 30.24 853 25.19 32 89.6 12 -0.6 31
14:20 1024 30.24 853 25.19 30.6 87.1 13 -0.5 31
14:25 1024 30.24 853 25.19 30.8 87.4 14 0.3 32.5
14:30 1024 30.24 853 25.19 30.2 86.4 14 0.1 32.3
14:35 1024 30.24 853 25.19 30.3 86.6 14 0.2 32.3
14:40 1024 30.24 853 25.19 30.6 87 15 1 33.9
14:45 1024 30.24 853 25.19 29.8 85.6 15 0.5 32.9
14:50 1024 30.24 853 25.19 30.2 86.3 14 0.2 32.4
14:55 1024 30.24 853 25.19 31 87.8 14 0.6 33
15:00 1024 30.24 853 25.19 31.2 88.1 13 0.1 32.1
15:05 1024 30.24 853 25.19 31.4 88.5 13 -0.4 31.3
15:10 1024 30.24 853 25.19 31 87.7 13 -0.7 30.7
15:15 1024 30.24 853 25.19 30.7 87.2 13 -0.7 30.8
15:20 1024 30.24 853 25.19 31.2 88.1 11 -2.2 28
15:25 1024 30.24 853 25.19 31 87.8 12 -1.2 29.8
15:30 1024 30.24 853 25.19 30.9 87.6 12 -1 30.2
15:35 1024 30.24 853 25.19 31.4 88.5 12 -0.8 30.5
15:40 1023 30.21 853 25.19 31.1 88 13 -0.7 30.8
15:45 1023 30.21 853 25.19 31.2 88.2 13 -0.3 31.5
15:50 1023 30.21 853 25.19 31.8 89.2 13 -0.2 31.7
15:55 1023 30.21 852 25.16 31.6 88.8 13 -0.2 31.6
16:00 1023 30.21 852 25.16 31.5 88.7 13 0.2 32.3
16:05 1023 30.21 852 25.16 32.2 90 13 0.3 32.5
16:10 1023 30.21 852 25.16 32 89.5 13 0.3 32.6
16:15 1023 30.21 852 25.16 30.7 87.2 13 -0.4 31.4
16:20 1023 30.21 852 25.16 30.6 87.1 13 -0.3 31.5
16:25 1023 30.21 852 25.16 30.5 86.9 13 -0.2 31.6
16:30 1023 30.21 852 25.16 30.4 86.6 14 0.2 32.3
16:35 1023 30.21 852 25.16 30.2 86.4 14 -0.2 31.6
16:40 1023 30.21 852 25.16 30.9 87.6 13 0.1 32.2
16:45 1023 30.21 852 25.16 31.2 88.1 13 0.1 32.3
16:50 1023 30.21 852 25.16 31.1 88 13 0.2 32.3
16:55 1023 30.21 852 25.16 31.1 88 14 0.5 32.9
17:00 1023 30.21 852 25.16 30.5 86.9 13 -0.4 31.3
17:05 1023 30.21 852 25.16 30.7 87.3 13 -0.4 31.2
17:10 1023 30.21 852 25.16 31.3 88.3 13 0.1 32.1
17:15 1023 30.21 852 25.16 30.9 87.6 13 -0.1 31.8
17:20 1023 30.21 852 25.16 30.5 86.9 14 0.1 32.2
17:25 1023 30.21 852 25.16 31.3 88.3 13 0.2 32.4
17:30 1023 30.21 852 25.16 31.6 88.9 13 0.5 32.9
17:35 1023 30.21 852 25.16 30.5 87 14 0.4 32.7
17:40 1023 30.21 852 25.16 30.5 87 13 -0.1 31.8
17:45 1023 30.21 852 25.16 31.3 88.3 13 -0.1 31.9
17:50 1023 30.21 852 25.16 31.5 88.6 13 0.3 32.5
17:55 1023 30.21 852 25.16 30.8 87.5 14 0.2 32.3
18:00 1023 30.21 852 25.16 30.5 86.8 13 -0.3 31.5
18:05 1022 30.18 852 25.16 31 87.7 13 -0.1 31.8
18:10 1022 30.18 852 25.16 31.1 88 14 1 33.9
18:15 1022 30.18 852 25.16 30.8 87.4 13 0 32
18:20 1022 30.18 852 25.16 30.7 87.3 13 -0.1 31.8
18:25 1022 30.18 852 25.16 30.8 87.4 13 -0.3 31.5
18:30 1022 30.18 852 25.16 31 87.7 14 0.7 33.2
18:35 1022 30.18 852 25.16 30.2 86.4 14 -0.1 31.8
18:40 1022 30.18 852 25.16 30 86 14 0.2 32.4
18:45 1022 30.18 852 25.16 29.9 85.8 14 0.2 32.3
18:50 1022 30.18 852 25.16 29.8 85.6 14 -0 31.9
18:55 1022 30.18 852 25.16 29.7 85.4 14 -0.1 31.9
19:00 1022 30.18 852 25.16 29.7 85.4 14 -0 32
19:05 1022 30.18 852 25.16 29.7 85.4 14 -0.3 31.5
19:10 1022 30.18 852 25.16 29.6 85.2 14 -0.5 31.2
19:15 1022 30.18 852 25.16 29.5 85.1 14 -0.7 30.7
19:20 1022 30.18 852 25.16 29.4 85 14 -0.4 31.3
19:25 1022 30.18 852 25.16 29.3 84.8 15 0.7 33.3
19:30 1022 30.18 852 25.16 29.1 84.5 15 0.2 32.3
19:35 1022 30.18 852 25.16 29 84.1 21 4.7 40.5
19:40 1022 30.18 852 25.16 28.5 83.4 21 4.6 40.2
19:45 1022 30.18 852 25.16 28.3 82.9 21 3.9 39.1
19:50 1022 30.18 852 25.16 28.2 82.7 20 3.3 38
19:55 1023 30.21 852 25.16 28 82.3 22 4.8 40.6
20:00 1023 30.21 852 25.16 27.5 81.5 24 5.2 41.4
20:05 1023 30.21 852 25.16 26.9 80.5 29 7.8 46
20:10 1022 30.18 852 25.16 26.3 79.3 30 7.7 45.9
20:15 1023 30.21 852 25.16 25.8 78.4 31 7.6 45.6
20:20 1023 30.21 852 25.16 25.4 77.8 31 7.5 45.5
20:25 1023 30.21 852 25.16 25.1 77.2 34 8.4 47.2
20:30 1023 30.21 852 25.16 24.7 76.5 36 8.9 48.1
20:35 1023 30.21 852 25.16 23.8 74.8 36 7.9 46.2
20:40 1023 30.21 852 25.16 23.3 73.9 33 6.5 43.6
20:45 1023 30.21 852 25.16 22.9 73.2 32 5.5 41.9
20:50 1023 30.21 852 25.16 22.5 72.4 32 5 41
20:55 1023 30.21 852 25.16 22.2 72 32 4.9 40.8
21:00 1023 30.21 852 25.16 22.1 71.7 32 4.8 40.6
21:05 1023 30.21 852 25.16 21.9 71.5 32 4.8 40.6
21:10 1023 30.21 852 25.16 21.8 71.2 32 4.7 40.5
21:15 1023 30.21 852 25.16 21.6 70.9 33 4.7 40.4
21:20 1023 30.21 852 25.16 21.5 70.8 32 4.2 39.6
21:25 1023 30.21 852 25.16 21.7 71.1 33 4.9 40.8
21:30 1023 30.21 852 25.16 21.8 71.2 32 4.5 40.1
21:35 1023 30.21 852 25.16 21.2 70.1 33 4.6 40.3
21:40 1023 30.21 852 25.16 20.9 69.6 32 3.9 39
21:45 1023 30.21 852 25.16 21.1 70 32 4 39.2
21:50 1023 30.21 852 25.16 21.1 70 32 4 39.2
21:55 1023 30.21 852 25.16 20.9 69.7 33 4.2 39.6
22:00 1023 30.21 852 25.16 21 69.8 37 6 42.7
22:05 1023 30.21 852 25.16 20.9 69.7 34 4.8 40.6
22:10 1023 30.21 852 25.16 20.6 69.1 36 5 41
22:15 1023 30.21 852 25.16 20.2 68.4 37 5 41
22:20 1023 30.21 852 25.16 20.5 69 35 4.6 40.3
22:25 1023 30.21 852 25.16 20.4 68.8 35 4.8 40.6
22:30 1023 30.21 852 25.16 20.7 69.2 33 4 39.2
22:35 1023 30.21 852 25.16 21 69.7 33 4.3 39.7
22:40 1023 30.21 852 25.16 20.9 69.7 33 4.3 39.7
22:45 1023 30.21 852 25.16 20.7 69.3 35 4.8 40.6
22:50 1023 30.21 852 25.16 20.2 68.3 35 4.4 39.9
22:55 1023 30.21 852 25.16 20.1 68.2 35 4.4 40
23:00 1023 30.21 852 25.16 20 68 35 4.2 39.5
23:05 1023 30.21 852 25.16 20.1 68.1 35 4.1 39.4
23:10 1023 30.21 852 25.16 20.1 68.2 35 4.5 40.1
23:15 1023 30.21 852 25.16 20 68.1 36 4.6 40.3
23:20 1023 30.21 852 25.16 19.7 67.5 36 4.5 40
23:25 1023 30.21 852 25.16 19.5 67.1 36 4.2 39.5
23:30 1023 30.21 852 25.16 19.6 67.3 36 4.1 39.4
23:35 1023 30.21 852 25.16 19.6 67.3 37 4.6 40.3
23:40 1023 30.21 852 25.16 19.7 67.4 35 3.8 38.8
23:45 1023 30.21 852 25.16 20.3 68.6 33 3.7 38.7
23:50 1023 30.21 852 25.16 20.9 69.6 33 4 39.2
23:55 1023 30.21 852 25.16 21.4 70.4 32 4.4 39.9
24:00 1023 30.21 852 25.16 20.4 68.7 35 4.5 40.1